Cres, Croatia
Current Conditions -  °F | °C
As of 7:00 PM on Friday 24 Oct 2014 (Local Time) from LDRI Reporting Station
Broken Clouds Broken Clouds  
Wind Chill: 54°   Ceiling: 7500
Heat Index: 54°   Visibility: 6mi
Dew Point: 39°   Wind: 5mph
Humidity: 58%   Direction: 350°N
Pressure: 30"   Gusts: NA
Location:  44.96°N, 14.41°E
Report Text: LDRI 241700Z 35004KT 240V030 9999 FEW036 SCT050 BKN075 12/04 Q1016 WS ALL RWY
Loading
Personal Weather Stations






























Interactive Weather Map
Tropical Storm Tracking
New forecast layout! Learn more

10-Day Weather Forecast

Advertisements
Track Severe Weather on mobile